Kezhma, Russia
Current Conditions -  °F | °C
As of 11:00 AM on Saturday 25 Oct 2014 (Local Time) from UIBB Reporting Station
Scattered Clouds Scattered Clouds  
Wind Chill:   Ceiling: Unl
Heat Index: 14°   Visibility: 6mi
Dew Point: 10°   Wind: 7mph
Humidity: 86%   Direction: 100°E
Pressure: 30.39"   Gusts: NA
Location:  58.98°N, 101.2°E
Report Text: UIBB 250400Z 10003MPS 9999 SCT016 M10/M12 Q1029 NOSIG RMKQFE728/0971 30850540
Loading
Personal Weather Stations






























Interactive Weather Map
Tropical Storm Tracking
New forecast layout! Learn more

10-Day Weather Forecast

Advertisements
Track Severe Weather on mobile